sensor_id;sensor_type;location;lat;lon;timestamp;P1;durP1;ratioP1;P2;durP2;ratioP2
15748;SDS011;7976;52.526;13.326;2022-10-15T00:01:04;27.67;;;14.27;;
15748;SDS011;7976;52.526;13.326;2022-10-15T00:03:34;23.95;;;13.95;;
15748;SDS011;7976;52.526;13.326;2022-10-15T00:06:04;25.95;;;14.25;;
15748;SDS011;7976;52.526;13.326;2022-10-15T00:08:34;23.65;;;13.10;;
15748;SDS011;7976;52.526;13.326;2022-10-15T00:11:02;28.02;;;14.27;;
15748;SDS011;7976;52.526;13.326;2022-10-15T00:13:31;24.67;;;13.40;;
15748;SDS011;7976;52.526;13.326;2022-10-15T00:15:58;26.15;;;14.18;;
15748;SDS011;7976;52.526;13.326;2022-10-15T00:18:26;29.30;;;14.38;;
15748;SDS011;7976;52.526;13.326;2022-10-15T00:20:54;23.48;;;12.20;;
15748;SDS011;7976;52.526;13.326;2022-10-15T00:23:26;25.38;;;13.43;;
15748;SDS011;7976;52.526;13.326;2022-10-15T00:26:03;27.10;;;14.40;;
15748;SDS011;7976;52.526;13.326;2022-10-15T00:28:35;25.15;;;13.30;;
15748;SDS011;7976;52.526;13.326;2022-10-15T00:31:16;25.05;;;14.38;;
15748;SDS011;7976;52.526;13.326;2022-10-15T00:33:57;26.17;;;14.48;;
15748;SDS011;7976;52.526;13.326;2022-10-15T00:36:43;30.25;;;14.75;;
15748;SDS011;7976;52.526;13.326;2022-10-15T00:39:16;25.90;;;14.75;;
15748;SDS011;7976;52.526;13.326;2022-10-15T00:41:44;23.63;;;14.30;;
15748;SDS011;7976;52.526;13.326;2022-10-15T00:47:19;25.65;;;13.85;;
15748;SDS011;7976;52.526;13.326;2022-10-15T00:49:55;29.20;;;14.73;;
15748;SDS011;7976;52.526;13.326;2022-10-15T00:52:30;28.88;;;15.55;;
15748;SDS011;7976;52.526;13.326;2022-10-15T00:55:26;29.20;;;15.32;;
15748;SDS011;7976;52.526;13.326;2022-10-15T00:58:04;25.15;;;14.38;;
15748;SDS011;7976;52.526;13.326;2022-10-15T01:00:35;26.98;;;14.50;;
15748;SDS011;7976;52.526;13.326;2022-10-15T01:03:02;26.85;;;15.02;;
15748;SDS011;7976;52.526;13.326;2022-10-15T01:05:30;27.80;;;14.75;;
15748;SDS011;7976;52.526;13.326;2022-10-15T01:08:02;28.90;;;15.05;;
15748;SDS011;7976;52.526;13.326;2022-10-15T01:10:31;27.38;;;14.63;;
15748;SDS011;7976;52.526;13.326;2022-10-15T01:13:13;28.23;;;15.35;;
15748;SDS011;7976;52.526;13.326;2022-10-15T01:15:53;28.75;;;15.38;;
15748;SDS011;7976;52.526;13.326;2022-10-15T01:18:29;26.65;;;15.15;;
15748;SDS011;7976;52.526;13.326;2022-10-15T01:21:07;29.63;;;16.52;;
15748;SDS011;7976;52.526;13.326;2022-10-15T01:27:26;28.13;;;15.85;;
15748;SDS011;7976;52.526;13.326;2022-10-15T01:30:18;27.00;;;15.18;;
15748;SDS011;7976;52.526;13.326;2022-10-15T01:32:52;30.23;;;16.13;;
15748;SDS011;7976;52.526;13.326;2022-10-15T01:35:52;27.13;;;15.25;;
15748;SDS011;7976;52.526;13.326;2022-10-15T01:38:35;28.98;;;15.60;;
15748;SDS011;7976;52.526;13.326;2022-10-15T01:41:15;29.92;;;15.40;;
15748;SDS011;7976;52.526;13.326;2022-10-15T01:43:57;31.25;;;15.65;;
15748;SDS011;7976;52.526;13.326;2022-10-15T01:46:56;31.23;;;16.55;;
15748;SDS011;7976;52.526;13.326;2022-10-15T01:49:32;30.05;;;16.35;;
15748;SDS011;7976;52.526;13.326;2022-10-15T01:52:06;30.63;;;16.23;;
15748;SDS011;7976;52.526;13.326;2022-10-15T01:54:48;30.92;;;15.63;;
15748;SDS011;7976;52.526;13.326;2022-10-15T01:57:19;27.25;;;15.07;;
15748;SDS011;7976;52.526;13.326;2022-10-15T01:59:54;30.85;;;16.27;;
15748;SDS011;7976;52.526;13.326;2022-10-15T02:02:24;29.42;;;15.70;;
15748;SDS011;7976;52.526;13.326;2022-10-15T02:04:51;28.45;;;15.75;;
15748;SDS011;7976;52.526;13.326;2022-10-15T02:07:23;27.88;;;15.63;;
15748;SDS011;7976;52.526;13.326;2022-10-15T02:10:04;27.38;;;15.25;;
15748;SDS011;7976;52.526;13.326;2022-10-15T02:12:42;31.15;;;15.82;;
15748;SDS011;7976;52.526;13.326;2022-10-15T02:15:24;27.70;;;14.70;;
15748;SDS011;7976;52.526;13.326;2022-10-15T02:18:03;27.45;;;16.13;;
15748;SDS011;7976;52.526;13.326;2022-10-15T02:20:40;30.23;;;16.42;;
15748;SDS011;7976;52.526;13.326;2022-10-15T02:23:16;27.92;;;15.63;;
15748;SDS011;7976;52.526;13.326;2022-10-15T02:25:47;29.02;;;15.40;;
15748;SDS011;7976;52.526;13.326;2022-10-15T02:28:18;31.90;;;16.35;;
15748;SDS011;7976;52.526;13.326;2022-10-15T02:30:49;30.27;;;15.93;;
15748;SDS011;7976;52.526;13.326;2022-10-15T02:33:19;38.08;;;19.08;;
15748;SDS011;7976;52.526;13.326;2022-10-15T02:35:49;28.55;;;15.68;;
15748;SDS011;7976;52.526;13.326;2022-10-15T02:38:18;28.27;;;15.23;;
15748;SDS011;7976;52.526;13.326;2022-10-15T02:40:49;29.77;;;15.75;;
15748;SDS011;7976;52.526;13.326;2022-10-15T02:43:19;29.60;;;16.10;;
15748;SDS011;7976;52.526;13.326;2022-10-15T02:45:50;29.27;;;15.82;;
15748;SDS011;7976;52.526;13.326;2022-10-15T02:48:20;30.48;;;16.75;;
15748;SDS011;7976;52.526;13.326;2022-10-15T02:50:48;28.38;;;15.48;;
15748;SDS011;7976;52.526;13.326;2022-10-15T02:53:14;26.70;;;15.48;;
15748;SDS011;7976;52.526;13.326;2022-10-15T02:55:42;27.15;;;14.85;;
15748;SDS011;7976;52.526;13.326;2022-10-15T02:58:10;27.42;;;15.15;;
15748;SDS011;7976;52.526;13.326;2022-10-15T03:00:37;25.08;;;14.38;;
15748;SDS011;7976;52.526;13.326;2022-10-15T03:03:04;25.50;;;15.18;;
15748;SDS011;7976;52.526;13.326;2022-10-15T03:05:32;26.80;;;14.60;;
15748;SDS011;7976;52.526;13.326;2022-10-15T03:08:00;25.63;;;14.90;;
15748;SDS011;7976;52.526;13.326;2022-10-15T03:10:28;29.23;;;15.60;;
15748;SDS011;7976;52.526;13.326;2022-10-15T03:13:00;24.92;;;14.57;;
15748;SDS011;7976;52.526;13.326;2022-10-15T03:15:31;29.85;;;15.93;;
15748;SDS011;7976;52.526;13.326;2022-10-15T03:17:58;26.65;;;14.65;;
15748;SDS011;7976;52.526;13.326;2022-10-15T03:20:26;27.10;;;14.85;;
15748;SDS011;7976;52.526;13.326;2022-10-15T03:22:54;26.45;;;14.65;;
15748;SDS011;7976;52.526;13.326;2022-10-15T03:25:21;25.83;;;14.65;;
15748;SDS011;7976;52.526;13.326;2022-10-15T03:27:57;27.52;;;14.77;;
15748;SDS011;7976;52.526;13.326;2022-10-15T03:30:33;25.52;;;14.77;;
15748;SDS011;7976;52.526;13.326;2022-10-15T03:33:00;26.92;;;15.05;;
15748;SDS011;7976;52.526;13.326;2022-10-15T03:35:28;27.27;;;15.25;;
15748;SDS011;7976;52.526;13.326;2022-10-15T03:37:57;27.02;;;15.27;;
15748;SDS011;7976;52.526;13.326;2022-10-15T03:40:24;26.13;;;14.80;;
15748;SDS011;7976;52.526;13.326;2022-10-15T03:42:55;28.70;;;15.07;;
15748;SDS011;7976;52.526;13.326;2022-10-15T03:45:23;25.60;;;13.90;;
15748;SDS011;7976;52.526;13.326;2022-10-15T03:48:08;26.33;;;14.32;;
15748;SDS011;7976;52.526;13.326;2022-10-15T03:50:35;27.40;;;14.70;;
15748;SDS011;7976;52.526;13.326;2022-10-15T03:53:04;27.75;;;15.23;;
15748;SDS011;7976;52.526;13.326;2022-10-15T03:55:32;25.73;;;14.38;;
15748;SDS011;7976;52.526;13.326;2022-10-15T03:57:59;26.38;;;14.88;;
15748;SDS011;7976;52.526;13.326;2022-10-15T04:00:26;26.05;;;14.73;;
15748;SDS011;7976;52.526;13.326;2022-10-15T04:02:57;25.77;;;13.93;;
15748;SDS011;7976;52.526;13.326;2022-10-15T04:05:26;25.42;;;13.85;;
15748;SDS011;7976;52.526;13.326;2022-10-15T04:08:05;24.92;;;13.85;;
15748;SDS011;7976;52.526;13.326;2022-10-15T04:10:36;27.17;;;13.82;;
15748;SDS011;7976;52.526;13.326;2022-10-15T04:13:02;24.27;;;13.52;;
15748;SDS011;7976;52.526;13.326;2022-10-15T04:15:31;25.50;;;13.77;;
15748;SDS011;7976;52.526;13.326;2022-10-15T04:18:03;25.67;;;13.57;;
15748;SDS011;7976;52.526;13.326;2022-10-15T04:20:30;26.52;;;13.85;;
15748;SDS011;7976;52.526;13.326;2022-10-15T04:23:10;23.90;;;13.60;;
15748;SDS011;7976;52.526;13.326;2022-10-15T04:25:41;26.38;;;13.60;;
15748;SDS011;7976;52.526;13.326;2022-10-15T04:28:10;28.85;;;13.60;;
15748;SDS011;7976;52.526;13.326;2022-10-15T04:30:38;24.77;;;14.02;;
15748;SDS011;7976;52.526;13.326;2022-10-15T04:33:09;26.63;;;13.48;;
15748;SDS011;7976;52.526;13.326;2022-10-15T04:35:37;25.02;;;14.07;;
15748;SDS011;7976;52.526;13.326;2022-10-15T04:38:07;24.23;;;13.40;;
15748;SDS011;7976;52.526;13.326;2022-10-15T04:40:57;23.50;;;12.88;;
15748;SDS011;7976;52.526;13.326;2022-10-15T04:43:36;22.02;;;12.48;;
15748;SDS011;7976;52.526;13.326;2022-10-15T04:46:07;24.10;;;12.52;;
15748;SDS011;7976;52.526;13.326;2022-10-15T04:48:35;20.40;;;12.00;;
15748;SDS011;7976;52.526;13.326;2022-10-15T04:51:10;23.85;;;12.05;;
15748;SDS011;7976;52.526;13.326;2022-10-15T04:53:59;24.70;;;12.95;;
15748;SDS011;7976;52.526;13.326;2022-10-15T04:56:28;24.80;;;12.90;;
15748;SDS011;7976;52.526;13.326;2022-10-15T04:58:55;25.42;;;11.75;;
15748;SDS011;7976;52.526;13.326;2022-10-15T05:01:27;22.08;;;12.43;;
15748;SDS011;7976;52.526;13.326;2022-10-15T05:04:02;21.40;;;12.20;;
15748;SDS011;7976;52.526;13.326;2022-10-15T05:06:32;22.98;;;13.40;;
15748;SDS011;7976;52.526;13.326;2022-10-15T05:09:14;23.35;;;12.35;;
15748;SDS011;7976;52.526;13.326;2022-10-15T05:11:46;23.42;;;11.52;;
15748;SDS011;7976;52.526;13.326;2022-10-15T05:14:13;21.38;;;10.68;;
15748;SDS011;7976;52.526;13.326;2022-10-15T05:16:54;22.20;;;12.13;;
15748;SDS011;7976;52.526;13.326;2022-10-15T05:19:21;20.02;;;11.35;;
15748;SDS011;7976;52.526;13.326;2022-10-15T05:21:48;23.70;;;12.23;;
15748;SDS011;7976;52.526;13.326;2022-10-15T05:24:23;22.05;;;12.27;;
15748;SDS011;7976;52.526;13.326;2022-10-15T05:27:01;22.20;;;12.07;;
15748;SDS011;7976;52.526;13.326;2022-10-15T05:29:31;21.55;;;11.73;;
15748;SDS011;7976;52.526;13.326;2022-10-15T05:31:58;23.17;;;12.60;;
15748;SDS011;7976;52.526;13.326;2022-10-15T05:34:27;22.23;;;12.15;;
15748;SDS011;7976;52.526;13.326;2022-10-15T05:37:05;25.90;;;13.02;;
15748;SDS011;7976;52.526;13.326;2022-10-15T05:39:33;19.75;;;11.70;;
15748;SDS011;7976;52.526;13.326;2022-10-15T05:42:00;20.75;;;11.38;;
15748;SDS011;7976;52.526;13.326;2022-10-15T05:44:36;20.95;;;11.52;;
15748;SDS011;7976;52.526;13.326;2022-10-15T05:47:03;18.95;;;11.07;;
15748;SDS011;7976;52.526;13.326;2022-10-15T05:49:36;19.95;;;10.57;;
15748;SDS011;7976;52.526;13.326;2022-10-15T05:52:14;21.80;;;11.13;;
15748;SDS011;7976;52.526;13.326;2022-10-15T05:55:18;20.90;;;11.10;;
15748;SDS011;7976;52.526;13.326;2022-10-15T05:57:45;20.27;;;10.70;;
15748;SDS011;7976;52.526;13.326;2022-10-15T06:00:13;22.67;;;12.27;;
15748;SDS011;7976;52.526;13.326;2022-10-15T06:02:50;22.50;;;11.95;;
15748;SDS011;7976;52.526;13.326;2022-10-15T06:05:19;21.50;;;11.77;;
15748;SDS011;7976;52.526;13.326;2022-10-15T06:07:46;18.52;;;10.63;;
15748;SDS011;7976;52.526;13.326;2022-10-15T06:10:13;20.23;;;11.38;;
15748;SDS011;7976;52.526;13.326;2022-10-15T06:12:41;18.77;;;9.88;;
15748;SDS011;7976;52.526;13.326;2022-10-15T06:15:14;21.40;;;11.88;;
15748;SDS011;7976;52.526;13.326;2022-10-15T06:17:42;19.52;;;11.00;;
15748;SDS011;7976;52.526;13.326;2022-10-15T06:20:10;22.17;;;11.75;;
15748;SDS011;7976;52.526;13.326;2022-10-15T06:22:37;18.38;;;9.95;;
15748;SDS011;7976;52.526;13.326;2022-10-15T06:25:05;21.30;;;11.73;;
15748;SDS011;7976;52.526;13.326;2022-10-15T06:27:33;20.02;;;10.88;;
15748;SDS011;7976;52.526;13.326;2022-10-15T06:30:02;22.20;;;11.50;;
15748;SDS011;7976;52.526;13.326;2022-10-15T06:32:30;19.55;;;11.30;;
15748;SDS011;7976;52.526;13.326;2022-10-15T06:34:58;19.80;;;11.13;;
15748;SDS011;7976;52.526;13.326;2022-10-15T06:37:25;23.02;;;11.57;;
15748;SDS011;7976;52.526;13.326;2022-10-15T06:39:57;19.63;;;10.88;;
15748;SDS011;7976;52.526;13.326;2022-10-15T06:42:24;20.85;;;11.57;;
15748;SDS011;7976;52.526;13.326;2022-10-15T06:44:53;21.38;;;10.93;;
15748;SDS011;7976;52.526;13.326;2022-10-15T06:47:22;19.98;;;11.32;;
15748;SDS011;7976;52.526;13.326;2022-10-15T06:49:49;23.45;;;11.52;;
15748;SDS011;7976;52.526;13.326;2022-10-15T06:52:16;20.33;;;11.23;;
15748;SDS011;7976;52.526;13.326;2022-10-15T06:54:44;19.17;;;10.57;;
15748;SDS011;7976;52.526;13.326;2022-10-15T06:57:12;22.25;;;10.95;;
15748;SDS011;7976;52.526;13.326;2022-10-15T06:59:39;19.33;;;10.02;;
15748;SDS011;7976;52.526;13.326;2022-10-15T07:02:07;21.75;;;10.50;;
15748;SDS011;7976;52.526;13.326;2022-10-15T07:04:36;17.95;;;10.15;;
15748;SDS011;7976;52.526;13.326;2022-10-15T07:07:03;18.38;;;9.52;;
15748;SDS011;7976;52.526;13.326;2022-10-15T07:09:30;17.17;;;9.07;;
15748;SDS011;7976;52.526;13.326;2022-10-15T07:12:00;16.63;;;9.23;;
15748;SDS011;7976;52.526;13.326;2022-10-15T07:14:29;18.13;;;9.68;;
15748;SDS011;7976;52.526;13.326;2022-10-15T07:16:58;17.33;;;9.52;;
15748;SDS011;7976;52.526;13.326;2022-10-15T07:19:25;19.05;;;10.05;;
15748;SDS011;7976;52.526;13.326;2022-10-15T07:21:54;18.50;;;9.57;;
15748;SDS011;7976;52.526;13.326;2022-10-15T07:24:21;16.67;;;9.45;;
15748;SDS011;7976;52.526;13.326;2022-10-15T07:26:48;19.00;;;10.20;;
15748;SDS011;7976;52.526;13.326;2022-10-15T07:29:15;19.23;;;10.32;;
15748;SDS011;7976;52.526;13.326;2022-10-15T07:31:44;19.77;;;9.63;;
15748;SDS011;7976;52.526;13.326;2022-10-15T07:34:14;19.42;;;9.57;;
15748;SDS011;7976;52.526;13.326;2022-10-15T07:36:41;15.73;;;8.68;;
15748;SDS011;7976;52.526;13.326;2022-10-15T07:39:10;17.20;;;9.32;;
15748;SDS011;7976;52.526;13.326;2022-10-15T07:41:37;18.75;;;10.15;;
15748;SDS011;7976;52.526;13.326;2022-10-15T07:44:04;16.73;;;9.18;;
15748;SDS011;7976;52.526;13.326;2022-10-15T07:46:32;20.55;;;9.38;;
15748;SDS011;7976;52.526;13.326;2022-10-15T07:48:59;16.48;;;9.38;;
15748;SDS011;7976;52.526;13.326;2022-10-15T07:51:26;15.70;;;8.70;;
15748;SDS011;7976;52.526;13.326;2022-10-15T07:53:54;17.13;;;8.32;;
15748;SDS011;7976;52.526;13.326;2022-10-15T07:56:22;18.75;;;9.73;;
15748;SDS011;7976;52.526;13.326;2022-10-15T07:58:49;16.67;;;9.18;;
15748;SDS011;7976;52.526;13.326;2022-10-15T08:01:17;18.67;;;8.63;;
15748;SDS011;7976;52.526;13.326;2022-10-15T08:03:45;17.70;;;8.55;;
15748;SDS011;7976;52.526;13.326;2022-10-15T08:06:13;17.27;;;8.95;;
15748;SDS011;7976;52.526;13.326;2022-10-15T08:08:40;15.40;;;8.57;;
15748;SDS011;7976;52.526;13.326;2022-10-15T08:11:07;17.77;;;9.23;;
15748;SDS011;7976;52.526;13.326;2022-10-15T08:13:38;15.85;;;8.85;;
15748;SDS011;7976;52.526;13.326;2022-10-15T08:16:06;18.42;;;8.38;;
15748;SDS011;7976;52.526;13.326;2022-10-15T08:18:34;15.57;;;7.90;;
15748;SDS011;7976;52.526;13.326;2022-10-15T08:21:02;17.48;;;8.00;;
15748;SDS011;7976;52.526;13.326;2022-10-15T08:23:30;16.40;;;8.93;;
15748;SDS011;7976;52.526;13.326;2022-10-15T08:25:57;15.95;;;7.90;;
15748;SDS011;7976;52.526;13.326;2022-10-15T08:28:25;14.45;;;7.75;;
15748;SDS011;7976;52.526;13.326;2022-10-15T08:30:53;13.88;;;7.78;;
15748;SDS011;7976;52.526;13.326;2022-10-15T08:33:23;14.25;;;7.18;;
15748;SDS011;7976;52.526;13.326;2022-10-15T08:35:50;13.45;;;7.13;;
15748;SDS011;7976;52.526;13.326;2022-10-15T08:38:19;16.52;;;8.40;;
15748;SDS011;7976;52.526;13.326;2022-10-15T08:41:04;13.93;;;7.10;;
15748;SDS011;7976;52.526;13.326;2022-10-15T08:43:49;14.30;;;8.27;;
15748;SDS011;7976;52.526;13.326;2022-10-15T08:46:19;14.63;;;8.02;;
15748;SDS011;7976;52.526;13.326;2022-10-15T08:48:56;14.65;;;7.65;;
15748;SDS011;7976;52.526;13.326;2022-10-15T08:51:27;17.60;;;7.88;;
15748;SDS011;7976;52.526;13.326;2022-10-15T08:54:03;15.73;;;8.10;;
15748;SDS011;7976;52.526;13.326;2022-10-15T08:56:42;16.33;;;7.35;;
15748;SDS011;7976;52.526;13.326;2022-10-15T08:59:16;15.80;;;8.07;;
15748;SDS011;7976;52.526;13.326;2022-10-15T09:02:02;15.13;;;7.05;;
15748;SDS011;7976;52.526;13.326;2022-10-15T09:04:40;29.35;;;14.07;;
15748;SDS011;7976;52.526;13.326;2022-10-15T09:07:21;22.42;;;10.35;;
15748;SDS011;7976;52.526;13.326;2022-10-15T09:09:56;19.42;;;9.95;;
15748;SDS011;7976;52.526;13.326;2022-10-15T09:12:41;21.05;;;9.68;;
15748;SDS011;7976;52.526;13.326;2022-10-15T09:15:20;20.35;;;10.10;;
15748;SDS011;7976;52.526;13.326;2022-10-15T09:17:54;16.35;;;8.55;;
15748;SDS011;7976;52.526;13.326;2022-10-15T09:20:24;19.85;;;8.65;;
15748;SDS011;7976;52.526;13.326;2022-10-15T09:22:57;15.25;;;7.22;;
15748;SDS011;7976;52.526;13.326;2022-10-15T09:25:24;14.95;;;6.70;;
15748;SDS011;7976;52.526;13.326;2022-10-15T09:28:00;13.65;;;6.45;;
15748;SDS011;7976;52.526;13.326;2022-10-15T09:30:36;16.05;;;7.80;;
15748;SDS011;7976;52.526;13.326;2022-10-15T09:33:15;13.35;;;7.28;;
15748;SDS011;7976;52.526;13.326;2022-10-15T09:35:58;19.48;;;9.43;;
15748;SDS011;7976;52.526;13.326;2022-10-15T09:38:40;17.05;;;8.82;;
15748;SDS011;7976;52.526;13.326;2022-10-15T09:41:28;15.25;;;7.88;;
15748;SDS011;7976;52.526;13.326;2022-10-15T09:44:07;15.27;;;8.43;;
15748;SDS011;7976;52.526;13.326;2022-10-15T09:46:46;14.63;;;7.78;;
15748;SDS011;7976;52.526;13.326;2022-10-15T09:49:17;14.88;;;7.50;;
15748;SDS011;7976;52.526;13.326;2022-10-15T09:51:53;15.88;;;7.65;;
15748;SDS011;7976;52.526;13.326;2022-10-15T09:54:35;15.38;;;8.50;;
15748;SDS011;7976;52.526;13.326;2022-10-15T09:57:12;15.88;;;8.23;;
15748;SDS011;7976;52.526;13.326;2022-10-15T09:59:51;13.70;;;7.78;;
15748;SDS011;7976;52.526;13.326;2022-10-15T10:02:20;15.10;;;8.25;;
15748;SDS011;7976;52.526;13.326;2022-10-15T10:04:50;16.10;;;8.35;;
15748;SDS011;7976;52.526;13.326;2022-10-15T10:07:28;13.52;;;7.00;;
15748;SDS011;7976;52.526;13.326;2022-10-15T10:09:59;14.73;;;8.30;;
15748;SDS011;7976;52.526;13.326;2022-10-15T10:12:30;11.90;;;6.32;;
15748;SDS011;7976;52.526;13.326;2022-10-15T10:15:02;13.35;;;6.35;;
15748;SDS011;7976;52.526;13.326;2022-10-15T10:17:33;12.75;;;6.20;;
15748;SDS011;7976;52.526;13.326;2022-10-15T10:20:08;13.10;;;6.90;;
15748;SDS011;7976;52.526;13.326;2022-10-15T10:22:43;13.05;;;6.28;;
15748;SDS011;7976;52.526;13.326;2022-10-15T10:25:23;13.15;;;6.65;;
15748;SDS011;7976;52.526;13.326;2022-10-15T10:28:05;12.25;;;5.93;;
15748;SDS011;7976;52.526;13.326;2022-10-15T10:33:33;13.25;;;6.00;;
15748;SDS011;7976;52.526;13.326;2022-10-15T10:36:19;11.18;;;5.43;;
15748;SDS011;7976;52.526;13.326;2022-10-15T10:38:54;10.85;;;5.63;;
15748;SDS011;7976;52.526;13.326;2022-10-15T10:44:18;12.20;;;6.50;;
15748;SDS011;7976;52.526;13.326;2022-10-15T10:47:01;11.55;;;6.15;;
15748;SDS011;7976;52.526;13.326;2022-10-15T10:49:37;15.63;;;8.20;;
15748;SDS011;7976;52.526;13.326;2022-10-15T10:52:19;12.95;;;6.80;;
15748;SDS011;7976;52.526;13.326;2022-10-15T10:54:54;18.88;;;7.32;;
15748;SDS011;7976;52.526;13.326;2022-10-15T10:57:33;13.15;;;6.15;;
15748;SDS011;7976;52.526;13.326;2022-10-15T11:00:11;13.95;;;6.65;;
15748;SDS011;7976;52.526;13.326;2022-10-15T11:02:46;14.43;;;6.85;;
15748;SDS011;7976;52.526;13.326;2022-10-15T11:05:15;12.20;;;5.93;;
15748;SDS011;7976;52.526;13.326;2022-10-15T11:07:52;13.25;;;7.07;;
15748;SDS011;7976;52.526;13.326;2022-10-15T11:10:31;12.98;;;5.82;;
15748;SDS011;7976;52.526;13.326;2022-10-15T11:13:12;11.77;;;5.75;;
15748;SDS011;7976;52.526;13.326;2022-10-15T11:16:13;10.55;;;5.68;;
15748;SDS011;7976;52.526;13.326;2022-10-15T11:18:55;12.00;;;5.47;;
15748;SDS011;7976;52.526;13.326;2022-10-15T11:21:49;13.93;;;6.45;;
15748;SDS011;7976;52.526;13.326;2022-10-15T11:24:34;12.60;;;5.72;;
15748;SDS011;7976;52.526;13.326;2022-10-15T11:27:14;11.68;;;5.80;;
15748;SDS011;7976;52.526;13.326;2022-10-15T11:30:02;11.38;;;5.75;;
15748;SDS011;7976;52.526;13.326;2022-10-15T11:32:43;11.05;;;5.40;;
15748;SDS011;7976;52.526;13.326;2022-10-15T11:35:25;11.95;;;5.65;;
15748;SDS011;7976;52.526;13.326;2022-10-15T11:38:12;11.88;;;5.07;;
15748;SDS011;7976;52.526;13.326;2022-10-15T11:40:54;11.27;;;4.85;;
15748;SDS011;7976;52.526;13.326;2022-10-15T11:43:42;9.90;;;4.97;;
15748;SDS011;7976;52.526;13.326;2022-10-15T11:46:29;10.85;;;5.15;;
15748;SDS011;7976;52.526;13.326;2022-10-15T11:49:12;10.23;;;5.20;;
15748;SDS011;7976;52.526;13.326;2022-10-15T11:52:01;10.93;;;5.03;;
15748;SDS011;7976;52.526;13.326;2022-10-15T11:54:53;10.23;;;5.05;;
15748;SDS011;7976;52.526;13.326;2022-10-15T11:57:32;10.85;;;4.47;;
15748;SDS011;7976;52.526;13.326;2022-10-15T12:00:08;9.82;;;4.65;;
15748;SDS011;7976;52.526;13.326;2022-10-15T12:02:54;10.02;;;4.60;;
15748;SDS011;7976;52.526;13.326;2022-10-15T12:05:30;9.25;;;4.60;;
15748;SDS011;7976;52.526;13.326;2022-10-15T12:08:04;14.48;;;4.90;;
15748;SDS011;7976;52.526;13.326;2022-10-15T12:10:43;10.43;;;4.88;;
15748;SDS011;7976;52.526;13.326;2022-10-15T12:13:28;9.30;;;4.43;;
15748;SDS011;7976;52.526;13.326;2022-10-15T12:16:08;10.70;;;5.32;;
15748;SDS011;7976;52.526;13.326;2022-10-15T12:18:49;10.60;;;5.10;;
15748;SDS011;7976;52.526;13.326;2022-10-15T12:21:31;9.13;;;4.25;;
15748;SDS011;7976;52.526;13.326;2022-10-15T12:24:02;9.95;;;4.65;;
15748;SDS011;7976;52.526;13.326;2022-10-15T12:26:51;11.38;;;5.05;;
15748;SDS011;7976;52.526;13.326;2022-10-15T12:29:20;11.68;;;5.55;;
15748;SDS011;7976;52.526;13.326;2022-10-15T12:31:52;9.70;;;4.80;;
15748;SDS011;7976;52.526;13.326;2022-10-15T12:34:29;10.27;;;5.30;;
15748;SDS011;7976;52.526;13.326;2022-10-15T12:37:05;10.07;;;4.88;;
15748;SDS011;7976;52.526;13.326;2022-10-15T12:39:42;10.90;;;4.97;;
15748;SDS011;7976;52.526;13.326;2022-10-15T12:42:17;10.73;;;5.05;;
15748;SDS011;7976;52.526;13.326;2022-10-15T12:44:52;11.60;;;4.32;;
15748;SDS011;7976;52.526;13.326;2022-10-15T12:50:18;10.80;;;4.63;;
15748;SDS011;7976;52.526;13.326;2022-10-15T12:52:55;9.48;;;4.43;;
15748;SDS011;7976;52.526;13.326;2022-10-15T12:55:27;10.18;;;4.57;;
15748;SDS011;7976;52.526;13.326;2022-10-15T12:57:59;11.38;;;5.30;;
15748;SDS011;7976;52.526;13.326;2022-10-15T13:00:34;9.80;;;4.13;;
15748;SDS011;7976;52.526;13.326;2022-10-15T13:03:08;12.02;;;4.75;;
15748;SDS011;7976;52.526;13.326;2022-10-15T13:06:11;9.93;;;4.28;;
15748;SDS011;7976;52.526;13.326;2022-10-15T13:08:53;10.48;;;4.30;;
15748;SDS011;7976;52.526;13.326;2022-10-15T13:11:41;9.85;;;4.18;;
15748;SDS011;7976;52.526;13.326;2022-10-15T13:14:16;10.02;;;3.83;;
15748;SDS011;7976;52.526;13.326;2022-10-15T13:16:54;11.10;;;4.90;;
15748;SDS011;7976;52.526;13.326;2022-10-15T13:19:24;9.63;;;4.07;;
15748;SDS011;7976;52.526;13.326;2022-10-15T13:21:56;9.15;;;4.15;;
15748;SDS011;7976;52.526;13.326;2022-10-15T13:24:27;12.50;;;4.60;;
15748;SDS011;7976;52.526;13.326;2022-10-15T13:27:13;10.93;;;4.70;;
15748;SDS011;7976;52.526;13.326;2022-10-15T13:29:53;8.18;;;3.50;;
15748;SDS011;7976;52.526;13.326;2022-10-15T13:32:23;7.80;;;3.10;;
15748;SDS011;7976;52.526;13.326;2022-10-15T13:34:53;8.13;;;3.30;;
15748;SDS011;7976;52.526;13.326;2022-10-15T13:37:23;7.50;;;3.30;;
15748;SDS011;7976;52.526;13.326;2022-10-15T13:39:56;8.40;;;3.90;;
15748;SDS011;7976;52.526;13.326;2022-10-15T13:42:24;7.43;;;3.10;;
15748;SDS011;7976;52.526;13.326;2022-10-15T13:44:56;7.68;;;2.95;;
15748;SDS011;7976;52.526;13.326;2022-10-15T13:47:29;7.03;;;2.72;;
15748;SDS011;7976;52.526;13.326;2022-10-15T13:50:09;9.23;;;2.90;;
15748;SDS011;7976;52.526;13.326;2022-10-15T13:52:45;7.38;;;3.00;;
15748;SDS011;7976;52.526;13.326;2022-10-15T13:55:16;8.13;;;2.92;;
15748;SDS011;7976;52.526;13.326;2022-10-15T13:57:47;6.78;;;2.88;;
15748;SDS011;7976;52.526;13.326;2022-10-15T14:00:25;8.48;;;3.25;;
15748;SDS011;7976;52.526;13.326;2022-10-15T14:03:07;8.35;;;3.10;;
15748;SDS011;7976;52.526;13.326;2022-10-15T14:05:39;6.68;;;2.70;;
15748;SDS011;7976;52.526;13.326;2022-10-15T14:08:13;6.78;;;2.60;;
15748;SDS011;7976;52.526;13.326;2022-10-15T14:10:46;6.53;;;2.63;;
15748;SDS011;7976;52.526;13.326;2022-10-15T14:13:14;7.45;;;2.67;;
15748;SDS011;7976;52.526;13.326;2022-10-15T14:15:43;8.27;;;2.80;;
15748;SDS011;7976;52.526;13.326;2022-10-15T14:18:28;6.22;;;2.60;;
15748;SDS011;7976;52.526;13.326;2022-10-15T14:21:03;6.07;;;2.30;;
15748;SDS011;7976;52.526;13.326;2022-10-15T14:23:37;7.25;;;2.70;;
15748;SDS011;7976;52.526;13.326;2022-10-15T14:26:07;6.60;;;2.78;;
15748;SDS011;7976;52.526;13.326;2022-10-15T14:28:35;7.10;;;2.85;;
15748;SDS011;7976;52.526;13.326;2022-10-15T14:31:05;6.63;;;2.72;;
15748;SDS011;7976;52.526;13.326;2022-10-15T14:33:40;7.13;;;2.72;;
15748;SDS011;7976;52.526;13.326;2022-10-15T14:36:10;7.07;;;2.70;;
15748;SDS011;7976;52.526;13.326;2022-10-15T14:38:48;6.45;;;2.47;;
15748;SDS011;7976;52.526;13.326;2022-10-15T14:41:26;6.55;;;2.60;;
15748;SDS011;7976;52.526;13.326;2022-10-15T14:43:58;7.63;;;2.55;;
15748;SDS011;7976;52.526;13.326;2022-10-15T14:46:36;7.53;;;2.60;;
15748;SDS011;7976;52.526;13.326;2022-10-15T14:49:21;10.05;;;3.28;;
15748;SDS011;7976;52.526;13.326;2022-10-15T14:51:52;7.80;;;2.97;;
15748;SDS011;7976;52.526;13.326;2022-10-15T14:54:25;8.80;;;2.78;;
15748;SDS011;7976;52.526;13.326;2022-10-15T14:57:01;10.65;;;3.53;;
15748;SDS011;7976;52.526;13.326;2022-10-15T14:59:33;10.30;;;3.58;;
15748;SDS011;7976;52.526;13.326;2022-10-15T15:02:03;8.63;;;3.50;;
15748;SDS011;7976;52.526;13.326;2022-10-15T15:04:41;9.50;;;3.20;;
15748;SDS011;7976;52.526;13.326;2022-10-15T15:07:11;7.15;;;2.97;;
15748;SDS011;7976;52.526;13.326;2022-10-15T15:09:42;7.63;;;3.30;;
15748;SDS011;7976;52.526;13.326;2022-10-15T15:12:14;9.32;;;4.38;;
15748;SDS011;7976;52.526;13.326;2022-10-15T15:14:46;10.88;;;3.92;;
15748;SDS011;7976;52.526;13.326;2022-10-15T15:17:18;9.48;;;3.50;;
15748;SDS011;7976;52.526;13.326;2022-10-15T15:19:48;9.07;;;3.58;;
15748;SDS011;7976;52.526;13.326;2022-10-15T15:22:20;9.77;;;4.20;;
15748;SDS011;7976;52.526;13.326;2022-10-15T15:24:52;8.05;;;2.92;;